Time;durP1;ratioP1;P1;durP2;ratioP2;P2;SDS_P1;SDS_P2;PMS_P1;PMS_P2;Temp;Humidity;BMP_temperature;BMP_pressure;BME280_temperature;BME280_humidity;BME280_pressure;Samples;Min_cycle;Max_cycle;Signal;HPM_P1;HPM_P2
2024/01/10 00:01:59;;;;;;;75.47;36.58;;;-2.00;99.90;;;;;;5074316;28;20033;-74
2024/01/10 00:04:24;;;;;;;83.20;35.95;;;-2.00;99.90;;;;;;5074019;28;20039;-74
2024/01/10 00:06:50;;;;;;;76.57;37.53;;;-2.00;99.90;;;;;;5074268;28;20031;-74
2024/01/10 00:09:16;;;;;;;105.43;38.45;;;-2.00;99.90;;;;;;5074359;28;20037;-74
2024/01/10 00:11:41;;;;;;;117.35;36.42;;;-2.00;99.90;;;;;;5074224;28;20383;-73
2024/01/10 00:14:07;;;;;;;106.45;38.05;;;-2.00;99.90;;;;;;5073951;28;20063;-74
2024/01/10 00:16:32;;;;;;;105.18;37.85;;;-2.00;99.90;;;;;;5074146;28;20032;-73
2024/01/10 00:18:58;;;;;;;107.70;35.50;;;-2.00;99.90;;;;;;5074419;28;20095;-74
2024/01/10 00:21:24;;;;;;;115.15;36.08;;;-2.10;99.90;;;;;;5074160;28;20032;-73
2024/01/10 00:23:49;;;;;;;79.32;36.55;;;-2.10;99.90;;;;;;5074878;28;20036;-73
2024/01/10 00:26:16;;;;;;;96.95;38.45;;;-2.10;99.90;;;;;;5075739;28;20036;-74
2024/01/10 00:28:41;;;;;;;78.00;36.30;;;-2.10;99.90;;;;;;5074805;28;20028;-73
2024/01/10 00:31:07;;;;;;;94.03;32.92;;;-2.10;99.90;;;;;;5078888;28;20024;-74
2024/01/10 00:33:33;;;;;;;82.93;29.92;;;-2.10;99.90;;;;;;5076802;28;20048;-74
2024/01/10 00:35:58;;;;;;;65.03;31.70;;;-2.10;99.90;;;;;;5077984;28;20024;-75
2024/01/10 00:38:24;;;;;;;72.00;31.05;;;-2.20;99.90;;;;;;5077217;28;20028;-74
2024/01/10 00:40:49;;;;;;;66.88;31.02;;;-2.20;99.90;;;;;;5073322;28;20526;-74
2024/01/10 00:43:15;;;;;;;68.47;32.92;;;-2.20;99.90;;;;;;5070887;28;20108;-74
2024/01/10 00:45:40;;;;;;;59.65;31.70;;;-2.20;99.90;;;;;;5072526;28;20028;-74
2024/01/10 00:48:06;;;;;;;66.60;33.90;;;-2.20;99.90;;;;;;5072665;28;20105;-75
2024/01/10 00:50:32;;;;;;;63.35;32.08;;;-2.20;99.90;;;;;;5071999;28;20100;-75
2024/01/10 00:52:57;;;;;;;70.10;31.17;;;-2.20;99.90;;;;;;5071692;28;20446;-74
2024/01/10 00:55:23;;;;;;;91.85;31.05;;;-2.20;99.90;;;;;;5072092;28;20063;-74
2024/01/10 00:57:48;;;;;;;71.38;31.13;;;-2.20;99.90;;;;;;5072496;28;20029;-74
2024/01/10 01:00:14;;;;;;;65.50;29.15;;;-2.20;99.90;;;;;;5072576;28;20448;-73
2024/01/10 01:02:40;;;;;;;60.42;30.08;;;-2.20;99.90;;;;;;5067074;28;20028;-76
2024/01/10 01:05:09;;;;;;;61.03;29.30;;;-2.20;99.90;;;;;;5071008;28;20425;-74
2024/01/10 01:07:36;;;;;;;58.15;29.30;;;-2.20;99.90;;;;;;5072121;28;20024;-74
2024/01/10 01:10:02;;;;;;;59.55;29.17;;;-2.20;99.90;;;;;;5072148;28;20046;-74
2024/01/10 01:12:28;;;;;;;52.53;26.95;;;-2.20;99.90;;;;;;5072812;28;20025;-74
2024/01/10 01:14:54;;;;;;;58.33;26.73;;;-2.20;99.90;;;;;;5071813;28;20388;-73
2024/01/10 01:17:19;;;;;;;56.28;25.65;;;-2.20;99.90;;;;;;5071921;28;20040;-74
2024/01/10 01:19:45;;;;;;;51.88;26.65;;;-2.10;99.90;;;;;;5070774;28;20472;-74
2024/01/10 01:22:11;;;;;;;50.22;25.48;;;-2.10;99.90;;;;;;5073341;28;20032;-73
2024/01/10 01:24:36;;;;;;;54.08;25.25;;;-2.10;99.90;;;;;;5074225;28;20040;-75
2024/01/10 01:27:03;;;;;;;53.17;25.05;;;-2.10;99.90;;;;;;5073547;28;20431;-75
2024/01/10 01:29:29;;;;;;;55.30;26.35;;;-2.10;99.90;;;;;;5073721;28;20017;-74
2024/01/10 01:31:54;;;;;;;48.85;24.48;;;-2.10;99.90;;;;;;5072167;28;20028;-74
2024/01/10 01:34:20;;;;;;;47.90;24.30;;;-2.20;99.90;;;;;;5072907;28;20056;-74
2024/01/10 01:36:46;;;;;;;61.25;26.20;;;-2.10;99.90;;;;;;5072038;28;20491;-75
2024/01/10 01:39:13;;;;;;;56.28;26.67;;;-2.20;99.90;;;;;;5073181;28;20036;-75
2024/01/10 01:41:39;;;;;;;52.33;24.92;;;-2.20;99.90;;;;;;5073068;28;20100;-74
2024/01/10 01:44:04;;;;;;;51.03;25.33;;;-2.20;99.90;;;;;;5071331;28;20056;-74
2024/01/10 01:46:31;;;;;;;51.15;24.58;;;-2.30;99.90;;;;;;5072446;28;20071;-75
2024/01/10 01:48:57;;;;;;;54.33;25.90;;;-2.30;99.90;;;;;;5072699;28;20021;-76
2024/01/10 01:51:23;;;;;;;52.80;25.30;;;-2.30;99.90;;;;;;5072561;28;20361;-76
2024/01/10 01:53:50;;;;;;;55.80;27.13;;;-2.30;99.90;;;;;;5072740;28;20099;-74
2024/01/10 01:56:16;;;;;;;51.40;26.75;;;-2.30;99.90;;;;;;5073459;28;20551;-74
2024/01/10 01:58:43;;;;;;;51.33;26.70;;;-2.30;99.90;;;;;;5074689;28;20073;-74
2024/01/10 02:01:11;;;;;;;54.55;27.38;;;-2.30;99.90;;;;;;5075134;28;20031;-75
2024/01/10 02:03:37;;;;;;;49.15;24.92;;;-2.20;99.90;;;;;;5075205;28;20016;-73
2024/01/10 02:06:03;;;;;;;53.33;27.85;;;-2.30;99.90;;;;;;5075053;28;20468;-74
2024/01/10 02:08:35;;;;;;;54.85;29.20;;;-2.30;99.90;;;;;;5076572;28;20027;-74
2024/01/10 02:11:02;;;;;;;53.20;27.17;;;-2.30;99.90;;;;;;5056170;28;20032;-74
2024/01/10 02:13:29;;;;;;;53.78;28.13;;;-2.20;99.90;;;;;;5062527;28;20372;-73
2024/01/10 02:15:54;;;;;;;56.58;27.70;;;-2.20;99.90;;;;;;5055419;28;20031;-73
2024/01/10 02:18:20;;;;;;;59.90;26.88;;;-2.20;99.90;;;;;;5053456;28;20199;-73
2024/01/10 02:20:46;;;;;;;61.75;30.15;;;-2.20;99.90;;;;;;5053963;28;20480;-75
2024/01/10 02:23:12;;;;;;;54.50;28.38;;;-2.20;99.90;;;;;;5056363;28;20033;-74
2024/01/10 02:25:39;;;;;;;54.92;29.40;;;-2.10;99.90;;;;;;5056161;28;20105;-75
2024/01/10 02:28:05;;;;;;;57.35;29.20;;;-2.20;99.90;;;;;;5057637;28;20558;-74
2024/01/10 02:30:31;;;;;;;54.08;28.95;;;-2.20;99.90;;;;;;5058390;28;20056;-74
2024/01/10 02:32:56;;;;;;;53.00;27.95;;;-2.20;99.90;;;;;;5059172;28;20114;-74
2024/01/10 02:35:22;;;;;;;56.03;28.63;;;-2.20;99.90;;;;;;5059862;28;20094;-73
2024/01/10 02:37:51;;;;;;;56.55;29.48;;;-2.20;99.90;;;;;;5074074;28;20125;-72
2024/01/10 02:40:17;;;;;;;53.38;28.60;;;-2.20;99.90;;;;;;5073518;28;20075;-71
2024/01/10 02:42:42;;;;;;;56.97;30.17;;;-2.20;99.90;;;;;;5072835;28;20495;-72
2024/01/10 02:45:09;;;;;;;55.53;29.52;;;-2.20;99.90;;;;;;5072932;28;20427;-73
2024/01/10 02:47:34;;;;;;;58.63;30.75;;;-2.10;99.90;;;;;;5072428;28;20063;-72
2024/01/10 02:50:00;;;;;;;61.25;29.23;;;-2.00;99.90;;;;;;5074405;28;20020;-73
2024/01/10 02:52:25;;;;;;;57.45;29.98;;;-2.00;99.90;;;;;;5080414;28;20078;-73
2024/01/10 02:54:51;;;;;;;53.22;28.80;;;-1.90;99.90;;;;;;5093702;28;20027;-72
2024/01/10 02:57:17;;;;;;;53.45;27.60;;;-1.90;99.90;;;;;;5093978;28;20140;-71
2024/01/10 02:59:42;;;;;;;59.53;30.08;;;-1.90;99.90;;;;;;5099762;28;20024;-72
2024/01/10 03:02:08;;;;;;;57.78;31.45;;;-1.90;99.90;;;;;;5098048;28;20044;-73
2024/01/10 03:04:34;;;;;;;58.03;30.15;;;-1.90;99.90;;;;;;5094239;28;20021;-71
2024/01/10 03:06:59;;;;;;;60.63;29.95;;;-1.80;99.90;;;;;;5094004;28;20024;-72
2024/01/10 03:09:25;;;;;;;55.00;29.73;;;-1.80;99.90;;;;;;5091416;28;20390;-71
2024/01/10 03:11:50;;;;;;;56.30;29.27;;;-1.80;99.90;;;;;;5091528;28;20089;-70
2024/01/10 03:14:16;;;;;;;55.22;29.25;;;-1.70;99.90;;;;;;5091382;28;20123;-71
2024/01/10 03:16:42;;;;;;;57.00;29.65;;;-1.70;99.90;;;;;;5095166;28;20471;-71
2024/01/10 03:19:07;;;;;;;55.78;29.92;;;-1.70;99.90;;;;;;5094989;28;20089;-71
2024/01/10 03:21:33;;;;;;;54.58;28.60;;;-1.60;99.90;;;;;;5095361;28;20052;-72
2024/01/10 03:24:00;;;;;;;51.63;28.67;;;-1.60;99.90;;;;;;5095369;28;20089;-71
2024/01/10 03:26:27;;;;;;;51.33;26.63;;;-1.50;99.90;;;;;;5102606;28;20023;-71
2024/01/10 03:28:53;;;;;;;51.78;26.65;;;-1.50;99.90;;;;;;5097415;28;20076;-72
2024/01/10 03:31:19;;;;;;;50.58;27.33;;;-1.50;99.90;;;;;;5095239;28;20019;-72
2024/01/10 03:33:44;;;;;;;52.60;27.33;;;-1.50;99.90;;;;;;5094301;28;20390;-71
2024/01/10 03:36:15;;;;;;;51.33;27.27;;;-1.50;99.90;;;;;;5094725;28;20028;-71
2024/01/10 03:38:41;;;;;;;49.25;25.90;;;-1.40;99.90;;;;;;5094539;28;20107;-71
2024/01/10 03:41:06;;;;;;;50.00;26.08;;;-1.40;99.90;;;;;;5094352;28;20103;-70
2024/01/10 03:43:32;;;;;;;54.78;27.58;;;-1.40;99.90;;;;;;5094077;28;20398;-72
2024/01/10 03:45:58;;;;;;;51.97;26.58;;;-1.40;99.90;;;;;;5094766;28;20035;-71
2024/01/10 03:48:23;;;;;;;50.92;26.88;;;-1.30;99.90;;;;;;5094696;28;20498;-71
2024/01/10 03:50:50;;;;;;;45.53;25.00;;;-1.40;99.90;;;;;;5095371;28;20020;-71
2024/01/10 03:53:15;;;;;;;46.63;25.08;;;-1.40;99.90;;;;;;5105756;28;20024;-74
2024/01/10 03:55:41;;;;;;;46.55;24.05;;;-1.40;99.90;;;;;;5105710;28;20043;-75
2024/01/10 03:58:07;;;;;;;44.45;23.15;;;-1.30;99.90;;;;;;5106592;28;20039;-75
2024/01/10 04:00:32;;;;;;;45.28;23.73;;;-1.30;99.90;;;;;;5102084;28;20031;-72
2024/01/10 04:02:59;;;;;;;45.53;22.77;;;-1.30;99.90;;;;;;5102032;28;20024;-71
2024/01/10 04:05:25;;;;;;;45.55;22.95;;;-1.30;99.90;;;;;;5100976;28;20107;-71
2024/01/10 04:07:51;;;;;;;40.38;21.27;;;-1.30;99.90;;;;;;5096996;28;20063;-71
2024/01/10 04:10:17;;;;;;;43.63;22.33;;;-1.30;99.90;;;;;;5095940;28;20028;-73
2024/01/10 04:12:43;;;;;;;41.80;21.95;;;-1.30;99.90;;;;;;5095253;28;20024;-71
2024/01/10 04:15:10;;;;;;;40.25;21.85;;;-1.30;99.90;;;;;;5094615;28;20103;-71
2024/01/10 04:17:35;;;;;;;37.90;20.48;;;-1.30;99.90;;;;;;5094373;28;20335;-72
2024/01/10 04:20:02;;;;;;;41.67;22.30;;;-1.30;99.90;;;;;;5094948;28;20035;-75
2024/01/10 04:22:28;;;;;;;41.83;21.60;;;-1.30;99.90;;;;;;5092770;28;20068;-71
2024/01/10 04:24:55;;;;;;;40.08;21.65;;;-1.20;99.90;;;;;;5085118;28;20414;-71
2024/01/10 04:27:21;;;;;;;39.67;20.15;;;-1.20;99.90;;;;;;5073095;28;20020;-71
2024/01/10 04:29:47;;;;;;;42.83;21.50;;;-1.20;99.90;;;;;;5074891;28;20505;-72
2024/01/10 04:32:13;;;;;;;43.08;22.00;;;-1.20;99.90;;;;;;5074247;28;20035;-72
2024/01/10 04:34:38;;;;;;;44.90;21.35;;;-1.20;99.90;;;;;;5075563;28;20028;-72
2024/01/10 04:37:06;;;;;;;35.22;20.02;;;-1.20;99.90;;;;;;5073851;28;20031;-71
2024/01/10 04:39:32;;;;;;;36.17;19.73;;;-1.20;99.90;;;;;;5074613;28;20479;-72
2024/01/10 04:41:58;;;;;;;35.25;19.63;;;-1.20;99.90;;;;;;5073804;28;20063;-72
2024/01/10 04:44:24;;;;;;;38.17;20.08;;;-1.20;99.90;;;;;;5073315;28;20028;-72
2024/01/10 04:46:49;;;;;;;47.03;22.27;;;-1.30;99.90;;;;;;5073739;28;20063;-72
2024/01/10 04:49:15;;;;;;;40.50;21.48;;;-1.30;99.90;;;;;;5070761;28;20024;-72
2024/01/10 04:51:40;;;;;;;42.40;22.05;;;-1.30;99.90;;;;;;5073457;28;20090;-72
2024/01/10 04:54:06;;;;;;;42.28;22.13;;;-1.30;99.90;;;;;;5072670;28;20048;-72
2024/01/10 04:56:32;;;;;;;45.65;22.90;;;-1.30;99.90;;;;;;5072740;28;20142;-72
2024/01/10 04:58:57;;;;;;;45.75;24.25;;;-1.30;99.90;;;;;;5071901;28;20024;-72
2024/01/10 05:01:23;;;;;;;49.33;23.00;;;-1.40;99.90;;;;;;5072553;28;20033;-73
2024/01/10 05:03:49;;;;;;;44.25;22.75;;;-1.30;99.90;;;;;;5071847;28;20028;-72
2024/01/10 05:06:14;;;;;;;42.53;21.75;;;-1.40;99.90;;;;;;5070776;28;20032;-71
2024/01/10 05:08:40;;;;;;;43.28;21.85;;;-1.40;99.90;;;;;;5070308;28;20473;-72
2024/01/10 05:11:05;;;;;;;43.33;22.20;;;-1.40;99.90;;;;;;5072349;28;20027;-73
2024/01/10 05:13:31;;;;;;;46.72;21.92;;;-1.40;99.90;;;;;;5071923;28;20024;-72
2024/01/10 05:15:56;;;;;;;43.47;21.27;;;-1.30;99.90;;;;;;5072583;28;20384;-72
2024/01/10 05:18:22;;;;;;;42.05;20.63;;;-1.40;99.90;;;;;;5071576;28;20028;-70
2024/01/10 05:20:47;;;;;;;41.38;20.88;;;-1.40;99.90;;;;;;5072626;28;20360;-72
2024/01/10 05:23:13;;;;;;;44.33;21.15;;;-1.50;99.90;;;;;;5072509;28;20036;-71
2024/01/10 05:25:39;;;;;;;43.78;19.83;;;-1.50;99.90;;;;;;5073141;28;20032;-72
2024/01/10 05:28:05;;;;;;;48.95;22.52;;;-1.50;99.90;;;;;;5073392;28;20016;-71
2024/01/10 05:30:31;;;;;;;42.42;20.38;;;-1.50;99.90;;;;;;5073035;28;20039;-71
2024/01/10 05:32:58;;;;;;;38.53;20.15;;;-1.50;99.90;;;;;;5072918;28;20108;-72
2024/01/10 05:35:25;;;;;;;35.72;18.67;;;-1.50;99.90;;;;;;5072364;28;20020;-72
2024/01/10 05:37:51;;;;;;;37.25;19.25;;;-1.60;99.90;;;;;;5073282;28;20052;-71
2024/01/10 05:40:18;;;;;;;34.28;17.60;;;-1.60;99.90;;;;;;5072861;28;20431;-72
2024/01/10 05:42:44;;;;;;;33.72;16.75;;;-1.50;99.90;;;;;;5072815;28;20387;-72
2024/01/10 05:45:10;;;;;;;32.55;16.45;;;-1.60;99.90;;;;;;5072425;28;20021;-72
2024/01/10 05:47:35;;;;;;;28.75;16.00;;;-1.60;99.90;;;;;;5073075;28;20028;-73
2024/01/10 05:50:02;;;;;;;33.33;16.90;;;-1.60;99.90;;;;;;5073032;28;20052;-74
2024/01/10 05:52:27;;;;;;;32.08;15.85;;;-1.60;99.90;;;;;;5072523;28;20104;-72
2024/01/10 05:54:53;;;;;;;27.00;15.25;;;-1.70;99.90;;;;;;5071963;28;20056;-72
2024/01/10 05:57:21;;;;;;;29.90;15.77;;;-1.70;99.90;;;;;;5073089;28;20099;-74
2024/01/10 05:59:46;;;;;;;26.80;15.23;;;-1.70;99.90;;;;;;5071249;28;20032;-72
2024/01/10 06:02:12;;;;;;;34.13;17.42;;;-1.80;99.90;;;;;;5072165;28;20033;-73
2024/01/10 06:04:38;;;;;;;29.25;16.25;;;-1.70;99.90;;;;;;5071610;28;20032;-72
2024/01/10 06:07:03;;;;;;;31.83;17.25;;;-1.70;99.90;;;;;;5072958;28;20367;-73
2024/01/10 06:09:29;;;;;;;28.88;16.23;;;-1.70;99.90;;;;;;5073002;28;20073;-73
2024/01/10 06:11:55;;;;;;;34.08;17.23;;;-1.70;99.90;;;;;;5073932;28;20050;-72
2024/01/10 06:14:20;;;;;;;30.65;16.17;;;-1.60;99.90;;;;;;5075439;28;20163;-73
2024/01/10 06:16:46;;;;;;;51.78;23.23;;;-1.60;99.90;;;;;;5085160;28;20055;-73
2024/01/10 06:19:12;;;;;;;29.88;16.27;;;-1.70;99.90;;;;;;5083955;28;20063;-73
2024/01/10 06:21:37;;;;;;;32.65;17.42;;;-1.70;99.90;;;;;;5078959;28;20357;-74
2024/01/10 06:24:04;;;;;;;33.42;18.77;;;-1.70;99.90;;;;;;5078248;28;20059;-73
2024/01/10 06:26:29;;;;;;;38.53;18.40;;;-1.70;99.90;;;;;;5071266;28;20025;-73
2024/01/10 06:28:55;;;;;;;30.20;17.25;;;-1.70;99.90;;;;;;5070193;28;20061;-73
2024/01/10 06:31:21;;;;;;;34.88;17.73;;;-1.70;99.90;;;;;;5071153;28;20064;-71
2024/01/10 06:33:46;;;;;;;36.05;18.58;;;-1.70;99.90;;;;;;5070463;28;20102;-71
2024/01/10 06:36:12;;;;;;;34.10;18.45;;;-1.70;99.90;;;;;;5070890;28;20032;-70
2024/01/10 06:38:41;;;;;;;30.55;17.95;;;-1.70;99.90;;;;;;5069805;28;20551;-72
2024/01/10 06:41:13;;;;;;;33.53;18.23;;;-1.70;99.90;;;;;;5071497;28;20073;-73
2024/01/10 06:43:40;;;;;;;32.92;18.45;;;-1.70;99.90;;;;;;5070493;28;20349;-73
2024/01/10 06:46:06;;;;;;;33.45;18.45;;;-1.70;99.90;;;;;;5070234;28;20026;-71
2024/01/10 06:48:32;;;;;;;37.17;19.95;;;-1.70;99.90;;;;;;5070818;28;20033;-72
2024/01/10 06:50:58;;;;;;;34.40;19.85;;;-1.70;99.90;;;;;;5071147;28;20021;-72
2024/01/10 06:53:24;;;;;;;32.70;18.50;;;-1.60;99.90;;;;;;5070379;28;20052;-72
2024/01/10 06:55:49;;;;;;;30.05;18.23;;;-1.60;99.90;;;;;;5069075;28;20506;-71
2024/01/10 06:58:15;;;;;;;32.55;18.13;;;-1.60;99.90;;;;;;5070829;28;20036;-72
2024/01/10 07:00:41;;;;;;;36.10;19.58;;;-1.50;99.90;;;;;;5070278;28;20441;-71
2024/01/10 07:03:07;;;;;;;32.83;18.70;;;-1.50;99.90;;;;;;5070254;28;20033;-71
2024/01/10 07:05:33;;;;;;;32.47;17.67;;;-1.40;99.90;;;;;;5068142;28;20474;-72
2024/01/10 07:07:59;;;;;;;32.53;18.23;;;-1.40;99.90;;;;;;5070767;28;20017;-71
2024/01/10 07:10:27;;;;;;;31.67;17.67;;;-1.30;99.90;;;;;;5070313;28;20337;-72
2024/01/10 07:12:54;;;;;;;30.42;17.92;;;-1.30;99.90;;;;;;5068910;28;20027;-75
2024/01/10 07:15:20;;;;;;;28.38;16.90;;;-1.30;99.90;;;;;;5070381;28;20036;-74
2024/01/10 07:17:45;;;;;;;28.25;17.02;;;-1.20;99.90;;;;;;5071295;28;20024;-73
2024/01/10 07:20:12;;;;;;;30.30;17.25;;;-1.20;99.90;;;;;;5071889;28;20391;-73
2024/01/10 07:22:43;;;;;;;32.30;18.15;;;-1.20;99.90;;;;;;5073898;28;20024;-72
2024/01/10 07:25:14;;;;;;;27.85;15.80;;;-1.20;99.90;;;;;;5078611;28;20036;-72
2024/01/10 07:27:42;;;;;;;30.33;17.10;;;-1.00;99.90;;;;;;5091018;28;20074;-72
2024/01/10 07:30:14;;;;;;;28.10;16.15;;;-0.90;99.90;;;;;;5091045;28;20025;-72
2024/01/10 07:32:44;;;;;;;28.52;16.55;;;-0.80;99.90;;;;;;5084542;28;20032;-72
2024/01/10 07:35:10;;;;;;;30.20;17.20;;;-0.70;99.90;;;;;;5070257;28;20067;-73
2024/01/10 07:37:43;;;;;;;33.33;17.27;;;-0.60;99.90;;;;;;5071097;28;20024;-72
2024/01/10 07:40:10;;;;;;;25.45;14.95;;;-0.60;99.90;;;;;;5070674;28;20028;-73
2024/01/10 07:42:36;;;;;;;25.88;14.55;;;-0.60;99.90;;;;;;5070665;28;20016;-72
2024/01/10 07:45:05;;;;;;;25.77;14.95;;;-0.70;99.90;;;;;;5070472;28;20107;-71
2024/01/10 07:47:34;;;;;;;28.27;16.27;;;-0.70;99.90;;;;;;5071147;28;20111;-72
2024/01/10 07:49:59;;;;;;;27.90;15.48;;;-0.70;99.90;;;;;;5072375;28;20020;-72
2024/01/10 07:52:25;;;;;;;27.95;14.50;;;-0.70;99.90;;;;;;5074639;28;20024;-71
2024/01/10 07:54:51;;;;;;;24.60;13.57;;;-0.80;99.90;;;;;;5069860;28;20032;-70
2024/01/10 07:57:18;;;;;;;27.50;14.57;;;-0.80;99.90;;;;;;5071640;28;20031;-72
2024/01/10 07:59:45;;;;;;;25.35;13.35;;;-0.80;99.90;;;;;;5070801;28;20028;-74
2024/01/10 08:02:11;;;;;;;25.70;14.13;;;-0.80;99.90;;;;;;5072975;28;20032;-72
2024/01/10 08:04:37;;;;;;;27.25;13.30;;;-0.80;99.90;;;;;;5079296;28;20085;-72
2024/01/10 08:07:03;;;;;;;26.23;14.45;;;-0.90;99.90;;;;;;5074984;28;20036;-73
2024/01/10 08:09:29;;;;;;;26.92;14.18;;;-0.90;99.90;;;;;;5080255;28;20021;-73
2024/01/10 08:11:54;;;;;;;31.35;16.10;;;-0.90;99.90;;;;;;5076109;28;20035;-72
2024/01/10 08:14:20;;;;;;;22.92;12.73;;;-0.90;99.90;;;;;;5074778;28;20052;-72
2024/01/10 08:16:45;;;;;;;20.90;12.85;;;-0.80;99.90;;;;;;5073665;28;20043;-72
2024/01/10 08:19:11;;;;;;;25.23;13.70;;;-0.90;99.90;;;;;;5074464;28;20459;-72
2024/01/10 08:21:37;;;;;;;25.00;13.85;;;-0.90;99.90;;;;;;5076381;28;20033;-73
2024/01/10 08:24:03;;;;;;;24.50;13.63;;;-0.80;99.90;;;;;;5075335;28;20071;-71
2024/01/10 08:26:29;;;;;;;23.75;13.82;;;-0.90;99.90;;;;;;5073960;28;20029;-71
2024/01/10 08:28:55;;;;;;;26.20;13.45;;;-0.80;99.90;;;;;;5073635;28;20039;-71
2024/01/10 08:31:20;;;;;;;23.75;13.05;;;-0.80;99.90;;;;;;5073664;28;20028;-71
2024/01/10 08:33:46;;;;;;;21.77;13.02;;;-0.80;99.90;;;;;;5074884;28;20483;-72
2024/01/10 08:36:14;;;;;;;25.90;14.05;;;-0.70;99.90;;;;;;5074245;28;20028;-72
2024/01/10 08:38:40;;;;;;;26.05;13.13;;;-0.70;99.90;;;;;;5074966;28;20487;-72
2024/01/10 08:41:07;;;;;;;24.55;12.40;;;-0.70;99.90;;;;;;5077055;28;20025;-78
2024/01/10 08:43:33;;;;;;;23.38;11.93;;;-0.70;99.90;;;;;;5077603;28;20056;-74
2024/01/10 08:45:58;;;;;;;22.95;12.25;;;-0.70;99.90;;;;;;5075746;28;20055;-74
2024/01/10 08:48:24;;;;;;;27.25;13.77;;;-0.80;99.90;;;;;;5076936;28;20025;-73
2024/01/10 08:50:50;;;;;;;21.23;12.57;;;-0.70;99.90;;;;;;5075392;28;20025;-75
2024/01/10 08:53:16;;;;;;;26.60;14.30;;;-0.70;99.90;;;;;;5076062;28;20068;-78
2024/01/10 08:55:42;;;;;;;23.35;13.32;;;-0.70;99.90;;;;;;5075599;28;20021;-76
2024/01/10 08:58:08;;;;;;;25.42;13.70;;;-0.70;99.90;;;;;;5080592;28;20089;-78
2024/01/10 09:00:34;;;;;;;24.88;13.93;;;-0.70;99.90;;;;;;5076621;28;20032;-76
2024/01/10 09:03:00;;;;;;;27.98;15.27;;;-0.70;99.90;;;;;;5075714;28;20541;-76
2024/01/10 09:05:26;;;;;;;21.77;12.88;;;-0.70;99.90;;;;;;5074867;28;20028;-76
2024/01/10 09:07:53;;;;;;;22.13;12.52;;;-0.70;99.90;;;;;;5073953;28;20117;-74
2024/01/10 09:10:21;;;;;;;23.55;12.65;;;-0.60;99.90;;;;;;5072922;28;20379;-76
2024/01/10 09:12:47;;;;;;;25.52;14.70;;;-0.60;99.90;;;;;;5073412;28;20498;-74
2024/01/10 09:15:14;;;;;;;23.88;12.40;;;-0.60;99.90;;;;;;5072848;28;20031;-70
2024/01/10 09:17:43;;;;;;;24.13;13.68;;;-0.60;99.90;;;;;;5072981;28;20040;-71
2024/01/10 09:20:10;;;;;;;21.60;12.85;;;-0.60;99.90;;;;;;5072765;28;20027;-70
2024/01/10 09:22:36;;;;;;;27.83;14.77;;;-0.60;99.90;;;;;;5072883;28;20028;-71
2024/01/10 09:25:04;;;;;;;26.33;15.10;;;-0.60;99.90;;;;;;5072299;28;20120;-71
2024/01/10 09:27:33;;;;;;;24.40;14.35;;;-0.60;99.90;;;;;;5072766;28;20475;-71
2024/01/10 09:30:01;;;;;;;29.48;16.02;;;-0.60;99.90;;;;;;5071249;28;20025;-70
2024/01/10 09:32:28;;;;;;;28.00;14.80;;;-0.50;99.90;;;;;;5072716;28;20023;-71
2024/01/10 09:34:54;;;;;;;22.63;13.60;;;-0.50;99.90;;;;;;5070452;28;20040;-71
2024/01/10 09:37:19;;;;;;;27.38;14.57;;;-0.50;99.90;;;;;;5073029;28;20487;-72
2024/01/10 09:39:45;;;;;;;24.75;14.30;;;-0.40;99.90;;;;;;5085446;28;20043;-74
2024/01/10 09:42:11;;;;;;;23.50;13.05;;;-0.50;99.90;;;;;;5094563;28;20054;-73
2024/01/10 09:44:36;;;;;;;26.05;13.60;;;-0.50;99.90;;;;;;5092234;28;20024;-73
2024/01/10 09:47:02;;;;;;;24.75;13.73;;;-0.50;99.90;;;;;;5093624;28;20077;-72
2024/01/10 09:49:29;;;;;;;25.80;13.68;;;-0.50;99.90;;;;;;5083868;28;20020;-74
2024/01/10 09:52:00;;;;;;;25.48;13.23;;;-0.50;99.90;;;;;;5073015;28;20079;-72
2024/01/10 09:54:26;;;;;;;25.95;14.50;;;-0.40;99.90;;;;;;5072159;28;20099;-72
2024/01/10 09:56:53;;;;;;;26.10;13.93;;;-0.40;99.90;;;;;;5072225;28;20407;-74
2024/01/10 09:59:18;;;;;;;24.33;13.82;;;-0.40;99.90;;;;;;5073419;28;20024;-73
2024/01/10 10:01:44;;;;;;;23.70;14.20;;;-0.50;99.90;;;;;;5071868;28;20046;-73
2024/01/10 10:04:11;;;;;;;24.52;14.30;;;-0.50;99.90;;;;;;5072003;28;20024;-73
2024/01/10 10:06:37;;;;;;;24.75;13.45;;;-0.50;99.90;;;;;;5074005;28;20032;-73
2024/01/10 10:09:03;;;;;;;24.55;14.68;;;-0.50;99.90;;;;;;5073868;28;20036;-72
2024/01/10 10:11:29;;;;;;;26.02;14.43;;;-0.50;99.90;;;;;;5074153;28;20021;-72
2024/01/10 10:13:55;;;;;;;25.17;13.98;;;-0.40;99.90;;;;;;5073305;28;20031;-73
2024/01/10 10:16:28;;;;;;;30.27;14.88;;;-0.30;99.90;;;;;;5074657;28;20036;-76
2024/01/10 10:18:57;;;;;;;24.35;14.32;;;-0.30;99.90;;;;;;5075002;28;20048;-77
2024/01/10 10:21:25;;;;;;;27.55;15.23;;;-0.30;99.90;;;;;;5077039;28;20020;-78
2024/01/10 10:23:59;;;;;;;25.90;14.95;;;-0.20;99.90;;;;;;5078792;28;20037;-76
2024/01/10 10:26:27;;;;;;;27.42;15.38;;;-0.20;99.90;;;;;;5072363;28;20024;-75
2024/01/10 10:28:52;;;;;;;26.75;15.13;;;-0.10;99.90;;;;;;5071805;28;20020;-72
2024/01/10 10:31:19;;;;;;;29.50;15.60;;;-0.10;99.90;;;;;;5072002;28;20098;-72
2024/01/10 10:33:46;;;;;;;28.20;15.90;;;-0.10;99.90;;;;;;5071433;28;20017;-75
2024/01/10 10:36:14;;;;;;;30.35;16.50;;;0.00;99.90;;;;;;5071505;28;20107;-72
2024/01/10 10:38:39;;;;;;;26.00;15.82;;;0.00;99.90;;;;;;5071326;28;20027;-73
2024/01/10 10:41:10;;;;;;;30.65;17.05;;;0.00;99.90;;;;;;5071484;28;20029;-76
2024/01/10 10:43:37;;;;;;;28.35;16.60;;;0.00;99.90;;;;;;5071380;28;20085;-73
2024/01/10 10:46:05;;;;;;;28.80;15.88;;;0.00;99.90;;;;;;5071535;28;20022;-73
2024/01/10 10:48:34;;;;;;;30.13;16.55;;;0.00;99.20;;;;;;5071504;28;20537;-73
2024/01/10 10:51:10;;;;;;;31.85;15.70;;;0.00;99.80;;;;;;5071704;28;20074;-72
2024/01/10 10:53:40;;;;;;;26.85;14.25;;;0.10;98.80;;;;;;5071168;28;20539;-73
2024/01/10 10:56:07;;;;;;;23.60;14.40;;;0.10;98.60;;;;;;5072176;28;20055;-72
2024/01/10 10:58:36;;;;;;;31.67;16.38;;;0.10;97.20;;;;;;5070601;28;20116;-73
2024/01/10 11:01:05;;;;;;;27.00;15.80;;;0.20;98.90;;;;;;5072337;28;20518;-72
2024/01/10 11:03:33;;;;;;;32.33;16.42;;;0.20;98.80;;;;;;5071249;28;20507;-73
2024/01/10 11:06:00;;;;;;;27.58;16.30;;;0.30;98.90;;;;;;5072044;28;20028;-73
2024/01/10 11:08:27;;;;;;;27.05;15.85;;;0.30;98.30;;;;;;5072371;28;20494;-74
2024/01/10 11:10:54;;;;;;;25.38;15.30;;;0.30;98.50;;;;;;5074666;28;20506;-72
2024/01/10 11:14:10;;;;;;;28.90;17.17;;;0.40;97.90;;;;;;5070885;28;20021;-72
2024/01/10 11:16:42;;;;;;;29.20;17.20;;;0.50;96.20;;;;;;5047525;28;20029;-73
2024/01/10 11:19:33;;;;;;;27.83;16.52;;;0.40;94.90;;;;;;5070663;28;20495;-73
2024/01/10 11:22:28;;;;;;;27.52;16.65;;;0.30;95.20;;;;;;5066623;28;20106;-72
2024/01/10 11:24:55;;;;;;;30.58;17.25;;;0.20;96.10;;;;;;5068710;28;20035;-75
2024/01/10 11:27:21;;;;;;;30.67;16.25;;;0.20;96.30;;;;;;5067748;28;20033;-73
2024/01/10 11:29:49;;;;;;;27.08;16.02;;;0.10;96.30;;;;;;5069066;28;20128;-73
2024/01/10 11:32:23;;;;;;;25.73;14.45;;;0.00;96.70;;;;;;5072648;28;20120;-73
2024/01/10 11:34:59;;;;;;;15.77;9.98;;;-0.10;96.40;;;;;;5071695;28;20391;-74
2024/01/10 11:37:43;;;;;;;22.98;12.27;;;-0.30;96.30;;;;;;5075812;28;20533;-73
2024/01/10 11:40:09;;;;;;;15.07;9.45;;;-0.30;99.50;;;;;;5074510;28;20108;-72
2024/01/10 11:43:01;;;;;;;17.98;11.13;;;-0.30;99.90;;;;;;5072652;28;20021;-73
2024/01/10 11:45:34;;;;;;;18.52;10.80;;;-0.20;99.10;;;;;;5069979;28;20060;-73
2024/01/10 11:48:00;;;;;;;19.20;10.15;;;-0.20;97.90;;;;;;5069812;28;20016;-72
2024/01/10 11:50:27;;;;;;;18.05;10.75;;;-0.20;97.20;;;;;;5076702;28;20029;-72
2024/01/10 11:52:54;;;;;;;23.30;13.00;;;-0.20;96.80;;;;;;5080802;28;20165;-72
2024/01/10 11:55:50;;;;;;;21.42;11.82;;;-0.30;97.90;;;;;;5080132;28;20021;-73
2024/01/10 11:58:16;;;;;;;21.70;12.45;;;-0.40;98.50;;;;;;5081476;28;20036;-73
2024/01/10 12:00:42;;;;;;;20.92;12.32;;;-0.40;99.40;;;;;;5082207;28;20142;-73
2024/01/10 12:03:09;;;;;;;22.00;12.30;;;-0.40;99.60;;;;;;5080703;28;20055;-72
2024/01/10 12:05:35;;;;;;;23.10;12.52;;;-0.40;99.90;;;;;;5079061;28;20020;-72
2024/01/10 12:08:06;;;;;;;24.73;13.45;;;-0.40;99.90;;;;;;5080575;28;20032;-73
2024/01/10 12:10:36;;;;;;;24.67;13.02;;;-0.30;99.90;;;;;;5072627;28;20021;-73
2024/01/10 12:13:02;;;;;;;22.40;12.48;;;-0.30;99.90;;;;;;5071943;28;20035;-75
2024/01/10 12:15:28;;;;;;;25.90;13.68;;;-0.30;99.90;;;;;;5071270;28;20055;-73
2024/01/10 12:17:55;;;;;;;24.70;13.15;;;-0.30;99.90;;;;;;5071560;28;20048;-73
2024/01/10 12:20:20;;;;;;;22.88;12.88;;;-0.30;99.90;;;;;;5071473;28;20073;-73
2024/01/10 12:22:46;;;;;;;25.50;13.23;;;-0.30;99.90;;;;;;5071937;28;20033;-73
2024/01/10 12:25:12;;;;;;;24.25;12.93;;;-0.20;99.90;;;;;;5071228;28;20071;-72
2024/01/10 12:27:37;;;;;;;25.65;13.40;;;-0.10;99.90;;;;;;5072014;28;20048;-73